• Join FlightAware (Why Join?)
  • Login
  • US Flag 
12:01PM EDT


 

Airport Tracker/Info


-or-


 

Live Flight TrackerFlight Track Log ✈ UAL3272 ✈ 07-Apr-2013 ✈ KMLU - KIAH

Flight Track Log - Related Links

Times and Time Zones

All times are in EDT time to prevent confusion due to time zone crossing. See the UAL3272 flight status page for this flight to view local times or setup timezone preferences in your user account.

Time Position Orientation Groundspeed Altitude Reporting Facility
EDT Latitude Longitude Course Direction KTS MPH feet Rate Location/Type
07:31AM 32.4917 -91.9933 197° South 164 189 22,000  Level Houston Center
07:32AM 32.4511 -92.0208 210° Southwest 213 245 7,000 -6,060 Descending Houston Center
07:33AM 32.2046 -92.1403 194° South  Level FlightAware Approximate
07:33AM 32.3878 -92.0669 212° Southwest 218 251 9,700  Level Houston Center
07:34AM 32.1217 -92.1652 194° South  Level FlightAware Approximate
07:34AM 32.3208 -92.1114 209° Southwest 268 308 11,600  Level Houston Center
07:35AM 32.0415 -92.2001 201° Southwest  Level FlightAware Approximate
07:35AM 32.2450 -92.1486 203° Southwest 293 337 13,500  Level Houston Center
07:36AM 31.9610 -92.2333 180° South  Level FlightAware Approximate
07:36AM 32.1811 -92.2222 224° Southwest 320 368 15,100  Level Houston Center
07:37AM 31.8800 -92.2633 197° South  Level FlightAware Approximate
07:37AM 32.1125 -92.2983 223° Southwest 338 389 16,600  Level Houston Center
07:38AM 32.0414 -92.3753 223° Southwest 348 400 18,000 1,440 Climbing Houston Center
07:39AM 31.9694 -92.4564 224° Southwest 359 413 19,600 1,500 Climbing Houston Center
07:40AM 31.8950 -92.5383 223° Southwest 368 423 21,100 1,140 Climbing Houston Center
07:41AM 31.8189 -92.6225 223° Southwest 378 435 22,000 420 Climbing Houston Center
07:42AM 31.7392 -92.7111 223° Southwest 397 457 22,000  Level Houston Center
07:43AM 31.6558 -92.8014 223° Southwest 410 472 22,000  Level Houston Center
07:44AM 31.5742 -92.8928 224° Southwest 409 471 22,000  Level Houston Center
07:45AM 31.4906 -92.9819 222° Southwest 411 473 22,000  Level Houston Center
07:46AM 31.3931 -93.0872 223° Southwest 404 465 22,000  Level Houston Center
07:47AM 31.3114 -93.1750 223° Southwest 400 460 22,000  Level Houston Center
07:48AM 31.2311 -93.2614 223° Southwest 395 455 22,000  Level Houston Center
07:49AM 31.1497 -93.3494 223° Southwest 394 453 22,000  Level Houston Center
07:50AM 31.0689 -93.4356 222° Southwest 394 453 22,000  Level Houston Center
07:51AM 30.9883 -93.5228 223° Southwest 397 457 22,000  Level Houston Center
07:52AM 30.9078 -93.6100 223° Southwest 396 456 22,000  Level Houston Center
07:53AM 30.8256 -93.6981 223° Southwest 402 463 22,000  Level Houston Center
07:54AM 30.7431 -93.7867 223° Southwest 405 466 22,000 -60 Level Houston Center
07:55AM 30.6594 -93.8764 223° Southwest 409 471 21,900 -1,140 Descending Houston Center
07:56AM 30.5781 -93.9631 223° Southwest 404 465 19,800 -2,100 Descending Houston Center
07:57AM 30.4989 -94.0469 222° Southwest 393 452 17,700 -2,400 Descending Houston Center
07:58AM 30.4050 -94.1450 222° Southwest 381 438 15,000 -2,460 Descending Houston Center
08:00AM 30.3317 -94.2222 222° Southwest 362 417 12,800 -1,740 Descending Houston Center
08:00AM 30.2781 -94.2789 222° Southwest 346 398 12,000 -900 Descending Houston Center
08:01AM 30.2622 -94.2958 223° Southwest 345 397 11,900  Descending Houston Center
08:01AM 30.2094 -94.3508 222° Southwest 318 366 12,000 60 Climbing Houston Center
08:02AM 30.1989 -94.3678 234° Southwest 325 374 12,000 -600 Level Houston Center
08:02AM 30.1683 -94.4433 245° Southwest 312 359 11,400 -900 Descending Houston Center
08:03AM 30.1622 -94.4581 244° Southwest 316 364 11,100 -1,500 Descending Houston Center
08:03AM 30.1367 -94.5272 247° West 283 326 9,900 -1,440 Descending Houston Center
08:04AM 30.1350 -94.5347 256° West 287 330 9,700 -1,680 Descending Houston Center
08:04AM 30.1086 -94.6058 247° West 259 298 8,200 -1,620 Descending Houston Center
08:05AM 30.1064 -94.6119 247° West 266 306 8,100 -240 Descending Houston Center
08:05AM 30.0800 -94.6819 246° West 255 293 8,000 -120 Descending Houston Center
08:06AM 30.0786 -94.6867 251° West 257 296 8,000  Level Houston Center
08:06AM 30.0500 -94.7606 246° West 262 302 8,000  Level Houston Center
08:07AM 30.0450 -94.7786 252° West 261 300 8,000 -420 Level Houston Center
08:07AM 30.0253 -94.8339 248° West 257 296 7,600 -720 Descending Houston Center
08:08AM 30.0181 -94.8550 248° West 258 297 7,300 -600 Descending Houston Center
08:08AM 29.9972 -94.9144 248° West 252 290 7,000 -600 Descending Houston Center
08:09AM 29.9942 -94.9306 258° West 253 291 6,700 -1,320 Descending Houston Center
08:09AM 29.9925 -94.9972 268° West 262 302 5,700 -1,320 Descending Houston Center
08:10AM 29.9950 -95.0108 282° West 253 291 5,400 -1,440 Descending Houston Center
08:10AM 29.9936 -95.0767 269° West 245 282 4,300 -1,320 Descending Houston Center
08:11AM 29.9928 -95.0900 266° West 249 287 4,100 -1,320 Descending Houston Center
08:11AM 29.9925 -95.1542 270° West 247 284 3,000 -1,320 Descending Houston Center
08:12AM 29.9939 -95.1683 276° West 247 284 2,800 -1,020 Descending Houston Center
08:13AM 29.9942 -95.2417 270° West 241 277 1,700 -1,140 Descending Houston Center